createdAt,value
2023-10-03T00:00:51.098Z,58.05
2023-10-03T00:03:17.843Z,58.33
2023-10-03T00:05:44.528Z,57.50
2023-10-03T00:08:11.162Z,58.06
2023-10-03T00:10:37.799Z,58.27
2023-10-03T00:13:04.451Z,59.21
2023-10-03T00:15:31.075Z,59.05
2023-10-03T00:17:57.733Z,59.67
2023-10-03T00:20:24.469Z,58.52
2023-10-03T00:22:51.099Z,58.71
2023-10-03T00:25:17.746Z,59.12
2023-10-03T00:27:44.348Z,57.57
2023-10-03T00:30:10.908Z,58.92
2023-10-03T00:32:37.647Z,59.01
2023-10-03T00:35:04.192Z,58.75
2023-10-03T00:37:30.764Z,60.04
2023-10-03T00:39:57.398Z,59.13
2023-10-03T00:42:23.978Z,58.97
2023-10-03T00:44:50.694Z,59.47
2023-10-03T00:47:17.357Z,58.79
2023-10-03T00:49:44.003Z,59.04
2023-10-03T00:52:10.587Z,59.75
2023-10-03T00:54:37.202Z,59.38
2023-10-03T00:57:03.696Z,59.14
2023-10-03T00:59:30.366Z,59.44
2023-10-03T01:01:57.013Z,58.92
2023-10-03T01:04:23.655Z,59.41
2023-10-03T01:06:50.214Z,58.70
2023-10-03T01:09:16.753Z,58.79
2023-10-03T01:11:43.350Z,58.76
2023-10-03T01:14:09.921Z,58.01
2023-10-03T01:16:36.575Z,59.44
2023-10-03T01:19:03.268Z,58.91
2023-10-03T01:21:29.967Z,60.75
2023-10-03T01:23:56.621Z,59.45
2023-10-03T01:26:23.273Z,60.30
2023-10-03T01:28:49.904Z,59.13
2023-10-03T01:31:16.623Z,58.95
2023-10-03T01:33:43.316Z,58.67
2023-10-03T01:36:09.929Z,59.41
2023-10-03T01:38:36.574Z,58.93
2023-10-03T01:41:03.123Z,59.71
2023-10-03T01:43:29.767Z,60.18
2023-10-03T01:45:56.545Z,60.17
2023-10-03T01:48:23.318Z,58.74
2023-10-03T01:50:49.935Z,58.86
2023-10-03T01:53:16.598Z,59.64
2023-10-03T01:55:43.227Z,58.69
2023-10-03T01:58:09.853Z,59.48
2023-10-03T02:00:36.428Z,60.34
2023-10-03T02:03:03.091Z,59.02
2023-10-03T02:05:29.846Z,60.13
2023-10-03T02:07:56.463Z,58.84
2023-10-03T02:10:24.404Z,59.15
2023-10-03T02:12:51.126Z,58.98
2023-10-03T02:15:17.803Z,58.47
2023-10-03T02:17:44.487Z,58.32
2023-10-03T02:20:11.184Z,57.69
2023-10-03T02:22:37.741Z,59.46
2023-10-03T02:25:04.339Z,58.38
2023-10-03T02:27:30.943Z,58.42
2023-10-03T02:29:57.545Z,58.08
2023-10-03T02:32:24.160Z,58.62
2023-10-03T02:34:50.804Z,58.51
2023-10-03T02:37:17.411Z,59.27
2023-10-03T02:39:44.033Z,58.57
2023-10-03T02:42:10.606Z,59.09
2023-10-03T02:44:37.235Z,59.17
2023-10-03T02:47:03.787Z,58.91
2023-10-03T02:49:30.350Z,58.83
2023-10-03T02:51:56.903Z,58.78
2023-10-03T02:54:23.495Z,58.37
2023-10-03T02:56:50.119Z,58.39
2023-10-03T02:59:16.772Z,58.18
2023-10-03T03:01:43.397Z,59.23
2023-10-03T03:04:10.266Z,58.44
2023-10-03T03:06:37.084Z,58.10
2023-10-03T03:09:03.880Z,59.16
2023-10-03T03:11:30.808Z,59.02
2023-10-03T03:13:57.422Z,58.50
2023-10-03T03:16:24.053Z,58.69
2023-10-03T03:18:50.639Z,59.24
2023-10-03T03:21:17.884Z,58.55
2023-10-03T03:23:44.719Z,59.23
2023-10-03T03:26:11.403Z,59.50
2023-10-03T03:28:39.874Z,59.26
2023-10-03T03:31:06.984Z,59.56
2023-10-03T03:33:33.693Z,59.42
2023-10-03T03:36:00.382Z,59.01
2023-10-03T03:38:26.960Z,59.88
2023-10-03T03:40:53.560Z,59.93
2023-10-03T03:43:20.110Z,59.67
2023-10-03T03:45:46.809Z,59.50
2023-10-03T03:48:13.470Z,59.23
2023-10-03T03:50:40.059Z,59.04
2023-10-03T03:53:06.649Z,60.54
2023-10-03T03:55:33.260Z,59.58
2023-10-03T03:57:59.797Z,59.07
2023-10-03T04:00:26.397Z,59.08
2023-10-03T04:02:53.062Z,58.11
2023-10-03T04:05:19.669Z,58.46
2023-10-03T04:07:46.265Z,58.50
2023-10-03T04:10:12.845Z,59.01
2023-10-03T04:12:39.342Z,58.96
2023-10-03T04:15:06.742Z,60.20
2023-10-03T04:17:34.219Z,59.14
2023-10-03T04:20:00.826Z,58.33
2023-10-03T04:22:27.389Z,57.72
2023-10-03T04:24:53.910Z,58.80
2023-10-03T04:27:20.496Z,58.84
2023-10-03T04:29:47.077Z,58.97
2023-10-03T04:32:13.653Z,59.57
2023-10-03T04:34:40.299Z,59.18
2023-10-03T04:37:06.866Z,58.45
2023-10-03T04:39:33.514Z,58.80
2023-10-03T04:42:00.186Z,59.35
2023-10-03T04:44:26.917Z,59.19
2023-10-03T04:46:53.541Z,59.47
2023-10-03T04:49:20.158Z,58.31
2023-10-03T04:51:46.722Z,57.68
2023-10-03T04:54:13.290Z,57.63
2023-10-03T04:56:40.075Z,58.55
2023-10-03T04:59:06.807Z,58.75
2023-10-03T05:01:33.542Z,59.14
2023-10-03T05:04:00.348Z,59.09
2023-10-03T05:06:27.071Z,58.86
2023-10-03T05:08:53.760Z,59.34
2023-10-03T05:11:20.310Z,59.35
2023-10-03T05:13:46.897Z,58.75
2023-10-03T05:16:13.473Z,58.66
2023-10-03T05:18:40.162Z,58.69
2023-10-03T05:21:06.762Z,58.60
2023-10-03T05:23:33.363Z,58.60
2023-10-03T05:25:59.984Z,58.32
2023-10-03T05:28:26.576Z,58.01
2023-10-03T05:30:53.186Z,59.35
2023-10-03T05:33:19.898Z,58.29
2023-10-03T05:35:46.592Z,59.11
2023-10-03T05:38:13.124Z,59.21
2023-10-03T05:40:39.781Z,59.49
2023-10-03T05:43:07.364Z,59.30
2023-10-03T05:45:34.582Z,59.11
2023-10-03T05:48:01.253Z,59.44
2023-10-03T05:50:28.138Z,59.51
2023-10-03T05:52:54.701Z,59.52
2023-10-03T05:55:21.240Z,60.02
2023-10-03T05:57:47.827Z,60.00
2023-10-03T06:00:14.326Z,59.94
2023-10-03T06:02:41.044Z,60.30
2023-10-03T06:05:07.714Z,59.63
2023-10-03T06:07:34.285Z,58.75
2023-10-03T06:10:00.879Z,58.92
2023-10-03T06:12:27.422Z,58.97
2023-10-03T06:14:54.026Z,58.81
2023-10-03T06:17:20.604Z,59.37
2023-10-03T06:19:47.218Z,59.53
2023-10-03T06:22:13.795Z,59.51
2023-10-03T06:24:40.450Z,60.34
2023-10-03T06:27:07.110Z,60.18
2023-10-03T06:29:33.746Z,59.06
2023-10-03T06:32:00.383Z,59.54
2023-10-03T06:34:26.953Z,60.57
2023-10-03T06:36:53.548Z,58.98
2023-10-03T06:39:20.148Z,60.85
2023-10-03T06:41:46.769Z,59.13
2023-10-03T06:44:13.358Z,59.19
2023-10-03T06:46:39.930Z,59.45
2023-10-03T06:49:06.501Z,58.68
2023-10-03T06:51:33.062Z,59.32
2023-10-03T06:54:12.873Z,59.06
2023-10-03T06:56:39.494Z,58.36
2023-10-03T06:59:06.053Z,58.38
2023-10-03T07:01:32.611Z,57.67
2023-10-03T07:03:59.513Z,57.80
2023-10-03T07:06:26.182Z,57.77
2023-10-03T07:08:52.879Z,57.66
2023-10-03T07:11:19.528Z,58.70
2023-10-03T07:13:46.128Z,58.50
2023-10-03T07:16:12.707Z,57.68
2023-10-03T07:18:39.368Z,58.29
2023-10-03T07:21:06.170Z,57.64
2023-10-03T07:23:33.454Z,56.78
2023-10-03T07:26:00.942Z,56.85
2023-10-03T07:28:27.514Z,55.80
2023-10-03T07:30:54.242Z,55.70
2023-10-03T07:33:21.033Z,56.08
2023-10-03T07:35:47.659Z,55.52
2023-10-03T07:38:16.053Z,55.68
2023-10-03T07:40:44.041Z,55.49
2023-10-03T07:43:10.627Z,55.70
2023-10-03T07:45:37.169Z,55.92
2023-10-03T07:48:03.837Z,56.46
2023-10-03T07:50:30.450Z,56.25
2023-10-03T07:52:57.067Z,56.73
2023-10-03T07:55:23.721Z,55.78
2023-10-03T07:57:50.315Z,55.91
2023-10-03T08:00:16.911Z,55.85
2023-10-03T08:02:43.705Z,55.55
2023-10-03T08:05:10.484Z,55.39
2023-10-03T08:07:37.090Z,55.18
2023-10-03T08:10:03.669Z,54.92
2023-10-03T08:12:30.184Z,54.48
2023-10-03T08:14:56.779Z,54.20
2023-10-03T08:17:23.407Z,54.75
2023-10-03T08:19:49.990Z,54.68
2023-10-03T08:22:16.664Z,53.86
2023-10-03T08:24:43.285Z,53.43
2023-10-03T08:27:10.086Z,53.36
2023-10-03T08:29:36.733Z,53.34
2023-10-03T08:32:03.322Z,53.55
2023-10-03T08:34:29.898Z,53.22
2023-10-03T08:36:56.515Z,53.19
2023-10-03T08:39:23.145Z,52.75
2023-10-03T08:41:49.801Z,53.60
2023-10-03T08:44:16.442Z,52.98
2023-10-03T08:46:43.070Z,53.05
2023-10-03T08:49:10.220Z,52.36
2023-10-03T08:51:37.007Z,53.13
2023-10-03T08:54:03.591Z,52.81
2023-10-03T08:56:30.177Z,52.72
2023-10-03T08:58:56.851Z,52.42
2023-10-03T09:01:23.551Z,52.46
2023-10-03T09:03:50.515Z,52.36
2023-10-03T09:06:17.345Z,52.69
2023-10-03T09:08:43.956Z,52.11
2023-10-03T09:11:10.593Z,52.38
2023-10-03T09:13:37.212Z,51.85
2023-10-03T09:16:03.952Z,51.53
2023-10-03T09:18:30.597Z,52.18
2023-10-03T09:20:57.358Z,51.84
2023-10-03T09:23:24.016Z,51.36
2023-10-03T09:25:50.591Z,51.39
2023-10-03T09:28:17.175Z,51.41
2023-10-03T09:30:43.724Z,51.54
2023-10-03T09:33:10.424Z,51.53
2023-10-03T09:35:37.168Z,51.22
2023-10-03T09:38:03.700Z,51.42
2023-10-03T09:40:30.283Z,51.52
2023-10-03T09:42:56.869Z,51.49
2023-10-03T09:45:23.461Z,51.95
2023-10-03T09:47:50.054Z,51.44
2023-10-03T09:50:16.698Z,51.46
2023-10-03T09:52:45.430Z,52.01
2023-10-03T09:55:13.157Z,51.60
2023-10-03T09:57:39.741Z,51.41
2023-10-03T10:00:06.299Z,51.43
2023-10-03T10:02:33.193Z,51.50
2023-10-03T10:04:59.916Z,51.19
2023-10-03T10:07:26.560Z,51.28
2023-10-03T10:09:53.131Z,51.04
2023-10-03T10:12:19.704Z,51.21
2023-10-03T10:14:46.311Z,51.65
2023-10-03T10:17:12.912Z,51.29
2023-10-03T10:19:39.524Z,51.41
2023-10-03T10:22:06.134Z,51.39
2023-10-03T10:24:32.750Z,51.19
2023-10-03T10:26:59.388Z,52.00
2023-10-03T10:29:25.980Z,52.27
2023-10-03T10:31:52.677Z,52.46
2023-10-03T10:34:19.272Z,52.08
2023-10-03T10:36:45.819Z,51.70
2023-10-03T10:39:12.496Z,52.01
2023-10-03T10:41:39.118Z,52.10
2023-10-03T10:44:05.683Z,52.50
2023-10-03T10:46:32.257Z,51.93
2023-10-03T10:48:58.906Z,51.92
2023-10-03T10:51:25.518Z,51.74
2023-10-03T10:53:52.137Z,52.39
2023-10-03T10:56:18.726Z,51.89
2023-10-03T10:58:45.310Z,51.54
2023-10-03T11:01:11.874Z,51.31
2023-10-03T11:03:38.616Z,50.96
2023-10-03T11:06:05.309Z,51.07
2023-10-03T11:08:31.925Z,51.23
2023-10-03T11:10:58.471Z,51.04
2023-10-03T11:13:25.145Z,51.38
2023-10-03T11:15:51.811Z,51.14
2023-10-03T11:18:18.494Z,51.26
2023-10-03T11:20:45.244Z,50.76
2023-10-03T11:23:11.853Z,50.92
2023-10-03T11:25:38.405Z,51.02
2023-10-03T11:28:04.967Z,50.86
2023-10-03T11:30:31.543Z,50.63
2023-10-03T11:32:58.155Z,50.54
2023-10-03T11:35:24.773Z,50.54
2023-10-03T11:37:51.319Z,50.89
2023-10-03T11:40:17.982Z,50.87
2023-10-03T11:42:44.542Z,50.41
2023-10-03T11:45:11.245Z,50.29
2023-10-03T11:47:37.861Z,50.05
2023-10-03T11:50:04.555Z,49.95
2023-10-03T11:52:31.154Z,50.12
2023-10-03T11:54:57.745Z,49.97
2023-10-03T11:57:24.380Z,50.02
2023-10-03T11:59:51.015Z,50.16
2023-10-03T12:02:17.573Z,50.14
2023-10-03T12:04:44.230Z,50.19
2023-10-03T12:07:10.832Z,49.99
2023-10-03T12:09:37.372Z,50.24
2023-10-03T12:12:04.035Z,50.16
2023-10-03T12:14:30.602Z,50.17
2023-10-03T12:16:57.201Z,50.01
2023-10-03T12:19:23.768Z,50.00
2023-10-03T12:21:50.329Z,50.12
2023-10-03T12:24:16.944Z,50.25
2023-10-03T12:26:43.548Z,49.91
2023-10-03T12:29:10.158Z,50.07
2023-10-03T12:31:36.763Z,50.01
2023-10-03T12:34:03.359Z,49.74
2023-10-03T12:36:30.248Z,49.98
2023-10-03T12:38:56.865Z,49.75
2023-10-03T12:41:23.461Z,50.07
2023-10-03T12:43:50.042Z,49.90
2023-10-03T12:46:16.579Z,49.51
2023-10-03T12:48:43.256Z,49.83
2023-10-03T12:51:10.115Z,49.57
2023-10-03T12:53:36.797Z,49.79
2023-10-03T12:56:03.380Z,49.65
2023-10-03T12:58:29.978Z,49.51
2023-10-03T13:00:56.660Z,49.42
2023-10-03T13:03:23.388Z,49.74
2023-10-03T13:05:50.157Z,49.67
2023-10-03T13:08:16.735Z,49.68
2023-10-03T13:10:43.437Z,49.66
2023-10-03T13:13:10.041Z,49.51
2023-10-03T13:15:36.670Z,49.51
2023-10-03T13:18:03.397Z,49.78
2023-10-03T13:20:30.025Z,49.70
2023-10-03T13:22:56.564Z,49.86
2023-10-03T13:25:23.172Z,50.02
2023-10-03T13:27:49.825Z,50.28
2023-10-03T13:30:16.442Z,50.41
2023-10-03T13:32:43.087Z,50.23
2023-10-03T13:35:09.759Z,50.42
2023-10-03T13:37:36.354Z,50.49
2023-10-03T13:40:02.899Z,50.37
2023-10-03T13:42:29.546Z,50.45
2023-10-03T13:44:56.137Z,50.71
2023-10-03T13:47:22.731Z,50.57
2023-10-03T13:49:49.328Z,50.42
2023-10-03T13:52:15.910Z,50.50
2023-10-03T13:54:42.396Z,50.56
2023-10-03T13:57:09.026Z,50.83
2023-10-03T13:59:35.593Z,50.92
2023-10-03T14:02:02.155Z,50.41
2023-10-03T14:04:28.747Z,50.86
2023-10-03T14:06:55.380Z,50.65
2023-10-03T14:09:22.068Z,50.71
2023-10-03T14:11:48.722Z,50.43
2023-10-03T14:14:15.362Z,50.40
2023-10-03T14:16:41.954Z,50.34
2023-10-03T14:19:08.504Z,50.11
2023-10-03T14:21:46.145Z,50.15
2023-10-03T14:24:14.136Z,50.10
2023-10-03T14:26:40.795Z,49.64
2023-10-03T14:29:07.410Z,49.72
2023-10-03T14:31:34.008Z,49.85
2023-10-03T14:34:00.608Z,49.80
2023-10-03T14:36:27.201Z,49.37
2023-10-03T14:38:53.726Z,49.64
2023-10-03T14:41:20.393Z,49.19
2023-10-03T14:43:46.942Z,49.29
2023-10-03T14:46:13.553Z,49.34
2023-10-03T14:48:40.214Z,49.26
2023-10-03T14:51:06.902Z,49.06
2023-10-03T14:53:33.563Z,49.10
2023-10-03T14:56:00.134Z,48.98
2023-10-03T14:58:26.753Z,49.05
2023-10-03T15:00:53.357Z,49.22
2023-10-03T15:03:20.206Z,49.21
2023-10-03T15:05:46.986Z,49.12
2023-10-03T15:08:13.600Z,49.04
2023-10-03T15:10:40.161Z,49.03
2023-10-03T15:13:06.784Z,48.90
2023-10-03T15:15:33.449Z,48.94
2023-10-03T15:18:00.147Z,49.78
2023-10-03T15:20:26.810Z,49.12
2023-10-03T15:22:53.441Z,48.43
2023-10-03T15:25:20.071Z,47.28
2023-10-03T15:27:46.674Z,47.73
2023-10-03T15:30:13.758Z,47.59
2023-10-03T15:32:40.441Z,47.55
2023-10-03T15:35:07.143Z,47.83
2023-10-03T15:37:33.792Z,47.59
2023-10-03T15:40:00.432Z,47.14
2023-10-03T15:42:27.125Z,46.81
2023-10-03T15:45:08.941Z,47.10
2023-10-03T15:47:37.779Z,46.67
2023-10-03T15:50:04.446Z,46.53
2023-10-03T15:52:31.113Z,46.35
2023-10-03T15:54:57.671Z,45.92
2023-10-03T15:57:24.414Z,45.88
2023-10-03T15:59:51.152Z,45.53
2023-10-03T16:02:17.766Z,45.85
2023-10-03T16:04:44.390Z,45.59
2023-10-03T16:07:10.995Z,46.25
2023-10-03T16:09:37.597Z,46.26
2023-10-03T16:12:04.277Z,45.87
2023-10-03T16:14:30.934Z,46.14
2023-10-03T16:16:57.615Z,45.40
2023-10-03T16:19:24.266Z,45.90
2023-10-03T16:21:50.950Z,45.83
2023-10-03T16:24:17.583Z,45.81
2023-10-03T16:26:44.289Z,45.62
2023-10-03T16:29:10.992Z,45.92
2023-10-03T16:31:40.318Z,45.99
2023-10-03T16:34:06.998Z,45.87
2023-10-03T16:36:33.606Z,45.64
2023-10-03T16:39:00.210Z,45.81
2023-10-03T16:41:27.753Z,45.56
2023-10-03T16:43:54.404Z,46.17
2023-10-03T16:46:21.043Z,46.03
2023-10-03T16:48:47.667Z,45.90
2023-10-03T16:51:14.340Z,46.01
2023-10-03T16:53:40.957Z,45.87
2023-10-03T16:56:07.617Z,45.64
2023-10-03T16:58:34.219Z,45.83
2023-10-03T17:01:01.157Z,46.12
2023-10-03T17:03:27.785Z,45.89
2023-10-03T17:05:54.486Z,46.13
2023-10-03T17:08:21.169Z,45.81
2023-10-03T17:10:47.970Z,45.96
2023-10-03T17:13:14.799Z,46.01
2023-10-03T17:15:41.691Z,46.05
2023-10-03T17:18:08.538Z,46.32
2023-10-03T17:20:35.158Z,46.63
2023-10-03T17:23:01.710Z,46.76
2023-10-03T17:25:28.291Z,46.36
2023-10-03T17:27:54.904Z,46.93
2023-10-03T17:30:21.516Z,46.81
2023-10-03T17:32:48.231Z,46.79
2023-10-03T17:35:14.899Z,46.86
2023-10-03T17:37:41.564Z,47.68
2023-10-03T17:40:08.205Z,48.21
2023-10-03T17:42:34.793Z,49.06
2023-10-03T17:45:01.574Z,49.27
2023-10-03T17:47:28.193Z,49.55
2023-10-03T17:49:54.937Z,49.37
2023-10-03T17:52:21.515Z,49.26
2023-10-03T17:54:48.154Z,48.96
2023-10-03T17:57:14.798Z,48.94
2023-10-03T17:59:47.413Z,48.62
2023-10-03T18:04:46.410Z,47.96
2023-10-03T18:07:13.044Z,48.28
2023-10-03T18:09:39.656Z,47.92
2023-10-03T18:12:06.259Z,48.07
2023-10-03T18:14:32.882Z,47.27
2023-10-03T18:16:59.417Z,46.95
2023-10-03T18:19:26.272Z,47.12
2023-10-03T18:21:52.999Z,46.46
2023-10-03T18:24:19.947Z,46.49
2023-10-03T18:26:46.853Z,46.00
2023-10-03T18:29:13.707Z,46.01
2023-10-03T18:31:40.668Z,45.50
2023-10-03T18:34:09.914Z,45.36
2023-10-03T18:36:36.765Z,45.47
2023-10-03T18:39:03.492Z,45.80
2023-10-03T18:41:31.795Z,45.12
2023-10-03T18:43:58.509Z,45.07
2023-10-03T18:46:25.449Z,44.75
2023-10-03T18:48:52.574Z,44.08
2023-10-03T18:51:19.595Z,44.47
2023-10-03T18:53:46.464Z,44.56
2023-10-03T18:56:13.333Z,44.51
2023-10-03T18:58:40.074Z,44.05
2023-10-03T19:01:07.021Z,44.37
2023-10-03T19:03:33.759Z,44.49
2023-10-03T19:06:00.533Z,44.33
2023-10-03T19:08:27.208Z,44.23
2023-10-03T19:10:53.811Z,43.61
2023-10-03T19:13:20.456Z,43.89
2023-10-03T19:15:47.014Z,43.84
2023-10-03T19:18:13.720Z,43.87
2023-10-03T19:20:40.365Z,43.69
2023-10-03T19:23:07.009Z,44.34
2023-10-03T19:25:33.588Z,43.48
2023-10-03T19:28:00.236Z,44.74
2023-10-03T19:30:27.034Z,43.89
2023-10-03T19:32:53.736Z,43.55
2023-10-03T19:35:20.434Z,43.95
2023-10-03T19:37:47.027Z,44.22
2023-10-03T19:40:13.574Z,44.19
2023-10-03T19:42:40.122Z,43.73
2023-10-03T19:45:06.942Z,44.14
2023-10-03T19:47:33.656Z,44.35
2023-10-03T19:50:00.239Z,45.15
2023-10-03T19:52:26.866Z,45.35
2023-10-03T19:54:53.443Z,45.47
2023-10-03T19:57:20.088Z,45.67
2023-10-03T19:59:46.719Z,45.78
2023-10-03T20:02:13.252Z,45.27
2023-10-03T20:04:39.919Z,45.73
2023-10-03T20:07:06.547Z,45.72
2023-10-03T20:09:33.176Z,45.98
2023-10-03T20:11:59.821Z,45.99
2023-10-03T20:14:26.459Z,45.16
2023-10-03T20:16:53.126Z,44.84
2023-10-03T20:19:19.768Z,44.77
2023-10-03T20:21:46.339Z,44.15
2023-10-03T20:24:12.931Z,44.47
2023-10-03T20:26:39.672Z,44.25
2023-10-03T20:29:06.381Z,43.85
2023-10-03T20:31:33.227Z,44.38
2023-10-03T20:33:59.918Z,44.24
2023-10-03T20:36:26.616Z,44.22
2023-10-03T20:38:53.421Z,44.51
2023-10-03T20:41:20.122Z,44.21
2023-10-03T20:43:46.780Z,43.91
2023-10-03T20:46:13.426Z,43.96
2023-10-03T20:48:40.103Z,43.91
2023-10-03T20:51:06.718Z,44.34
2023-10-03T20:53:33.424Z,43.93
2023-10-03T20:56:00.090Z,44.04
2023-10-03T20:58:26.736Z,44.18
2023-10-03T21:00:53.323Z,44.46
2023-10-03T21:03:20.041Z,43.80
2023-10-03T21:05:46.730Z,43.70
2023-10-03T21:08:13.276Z,43.05
2023-10-03T21:10:39.938Z,42.18
2023-10-03T21:13:06.509Z,42.71
2023-10-03T21:15:33.172Z,42.80
2023-10-03T21:17:59.864Z,42.52
2023-10-03T21:20:26.546Z,42.92
2023-10-03T21:22:53.152Z,43.05
2023-10-03T21:25:19.718Z,42.77
2023-10-03T21:27:46.316Z,42.88
2023-10-03T21:30:13.612Z,42.30
2023-10-03T21:32:40.624Z,42.65
2023-10-03T21:35:07.360Z,42.71
2023-10-03T21:37:34.008Z,42.45
2023-10-03T21:40:00.583Z,42.24
2023-10-03T21:42:29.241Z,42.33
2023-10-03T21:44:56.197Z,42.80
2023-10-03T21:47:22.823Z,42.00
2023-10-03T21:49:49.373Z,42.90
2023-10-03T21:52:15.991Z,42.32
2023-10-03T21:54:42.592Z,42.36
2023-10-03T21:57:09.248Z,42.73
2023-10-03T21:59:35.921Z,42.40
2023-10-03T22:02:02.582Z,43.08
2023-10-03T22:04:29.191Z,42.95
2023-10-03T22:06:55.758Z,43.45
2023-10-03T22:09:22.473Z,42.77
2023-10-03T22:11:49.050Z,44.12
2023-10-03T22:14:15.781Z,42.97
2023-10-03T22:16:42.497Z,43.79
2023-10-03T22:19:09.145Z,42.83
2023-10-03T22:21:35.837Z,43.58
2023-10-03T22:24:02.497Z,43.40
2023-10-03T22:26:29.066Z,44.36
2023-10-03T22:28:55.648Z,45.03
2023-10-03T22:31:22.231Z,44.45
2023-10-03T22:33:48.841Z,44.59
2023-10-03T22:36:15.505Z,45.06
2023-10-03T22:38:42.172Z,44.60
2023-10-03T22:41:08.850Z,43.35
2023-10-03T22:43:35.432Z,43.75
2023-10-03T22:46:02.084Z,44.97
2023-10-03T22:48:28.787Z,44.86
2023-10-03T22:50:55.464Z,44.45
2023-10-03T22:53:22.075Z,45.10
2023-10-03T22:55:48.599Z,44.94
2023-10-03T22:58:15.180Z,45.39
2023-10-03T23:00:41.794Z,45.71
2023-10-03T23:03:08.480Z,46.12
2023-10-03T23:05:35.246Z,45.50
2023-10-03T23:08:01.851Z,46.59
2023-10-03T23:10:28.526Z,46.60
2023-10-03T23:12:55.138Z,46.48
2023-10-03T23:15:21.798Z,46.90
2023-10-03T23:17:48.345Z,46.67
2023-10-03T23:20:14.990Z,46.82
2023-10-03T23:22:41.559Z,47.00
2023-10-03T23:25:08.130Z,47.19
2023-10-03T23:27:34.813Z,47.53
2023-10-03T23:30:01.569Z,47.50
2023-10-03T23:32:28.266Z,48.24
2023-10-03T23:34:54.877Z,47.88
2023-10-03T23:37:24.431Z,48.35
2023-10-03T23:39:50.964Z,47.99
2023-10-03T23:42:17.553Z,48.27
2023-10-03T23:44:46.041Z,47.42
2023-10-03T23:47:12.608Z,46.46
2023-10-03T23:49:39.173Z,46.17
2023-10-03T23:52:05.769Z,46.49
2023-10-03T23:54:32.372Z,46.31
2023-10-03T23:56:59.023Z,46.58
2023-10-03T23:59:25.651Z,46.34
